• Join FlightAware (Why Join?)
  • Login
  • US Flag 
01:31AM EDT


 

Airport Tracker/Info


-or-


 

Live Flight TrackerFlight Track Log ✈ SWA1044 ✈ 10-Apr-2013 ✈ KLAS - KSAN

Flight Track Log - Related Links

Times and Time Zones

All times are in EDT time to prevent confusion due to time zone crossing. See the SWA1044 flight status page for this flight to view local times or setup timezone preferences in your user account.

Time Position Orientation Groundspeed Altitude Reporting Facility
EDT Latitude Longitude Course Direction KTS MPH feet Rate Location/Type
04:49PM 36.0750 -115.0142 91° East 247 284 5,200  Level Los Angeles Center
04:50PM 36.0739 -114.9731 92° East 252 290 6,400 2,580 Climbing Los Angeles Center
04:50PM 36.0481 -114.9406 135° Southeast 300 345 7,600 2,580 Climbing Los Angeles Center
04:51PM 36.0075 -114.9208 159° South 286 329 9,100 2,700 Climbing Los Angeles Center
04:51PM 35.9544 -114.9186 178° South 328 377 10,600 1,980 Climbing Los Angeles Center
04:52PM 35.9150 -114.9206 182° South 321 369 11,200 2,160 Climbing Los Angeles Center
04:52PM 35.8472 -114.9408 194° South 389 448 12,800 2,760 Climbing Los Angeles Center
04:53PM 35.8072 -114.9553 196° South 379 436 14,100 2,880 Climbing Los Angeles Center
04:54PM 35.6733 -115.0050 197° South 405 466 17,500 2,940 Climbing Los Angeles Center
04:55PM 35.5511 -115.0506 197° South 438 504 20,300 2,460 Climbing Los Angeles Center
04:56PM 35.4522 -115.0875 197° South 453 521 22,700 2,400 Climbing Los Angeles Center
04:57PM 35.3019 -115.1475 198° South 469 540 25,300 2,160 Climbing Los Angeles Center
04:58PM 35.1725 -115.2081 201° Southwest 490 564 27,300 1,260 Climbing Los Angeles Center
04:59PM 35.0458 -115.2656 200° South 499 574 28,000 300 Climbing Los Angeles Center
05:00PM 34.8842 -115.3375 200° South 499 574 28,000  Level Los Angeles Center
05:01PM 34.7544 -115.3956 200° South 496 571 28,000  Level Los Angeles Center
05:02PM 34.6339 -115.4492 200° South 494 568 28,000  Level Los Angeles Center
05:03PM 34.5042 -115.5072 200° South 496 571 28,000  Level Los Angeles Center
05:04PM 34.3758 -115.5644 200° South 492 566 28,000  Level Los Angeles Center
05:05PM 34.2464 -115.6203 200° South 494 568 28,000  Level Los Angeles Center
05:06PM 34.0906 -115.6897 200° South 495 570 28,000 -240 Level Los Angeles Center
05:07PM 33.9625 -115.7464 200° South 492 566 27,500 -780 Descending Los Angeles Center
05:08PM 33.8375 -115.8017 200° South 483 556 26,400 -960 Descending Los Angeles Center
05:09PM 33.7389 -115.8458 200° South 474 545 25,600 -1,080 Descending Los Angeles Center
05:10PM 33.5678 -115.9200 200° South 468 539 24,200 -1,080 Descending Los Angeles Center
05:11PM 33.4675 -116.0047 215° Southwest 443 510 23,400 -1,800 Descending Los Angeles Center
05:12PM 33.3717 -116.0967 219° Southwest 443 510 20,600 -2,520 Descending Los Angeles Center
05:13PM 33.2767 -116.1861 218° Southwest 437 503 18,200 -2,340 Descending Los Angeles Center
05:15PM 33.1850 -116.2747 219° Southwest 427 491 15,800 -2,340 Descending Los Angeles Center
05:16PM 33.0956 -116.3597 219° Southwest 420 483 13,400 -1,920 Descending Los Angeles Center
05:17PM 33.0028 -116.4447 218° Southwest 399 459 11,900 -1,260 Descending Los Angeles Center
05:18PM 32.8961 -116.5067 206° Southwest 358 412 10,900 -960 Descending Los Angeles Center
05:19PM 32.8306 -116.5606 215° Southwest 334 384 10,000 -1,200 Descending Los Angeles Center
05:20PM 32.7792 -116.6667 240° Southwest 310 357 8,500 -1,380 Descending Los Angeles Center
05:21PM 32.7381 -116.7531 241° Southwest 303 349 7,200 -1,260 Descending Los Angeles Center
05:22PM 32.7000 -116.8364 242° Southwest 294 338 6,000 -1,200 Descending Los Angeles Center
05:22PM 32.6833 -116.9000 253° West 261 300 5,200 -1,320 Descending Southern California TRACON
05:24PM 32.7000 -117.0500 278° West 214 246 2,500 -1,260 Descending Southern California TRACON
05:25PM 32.7167 -117.1000 292° West 168 193 1,400 -960 Descending Southern California TRACON
05:26PM 32.7167 -117.1500 270° West 137 158 600 -780 Descending Southern California TRACON
05:27PM 32.7261 -117.1628 311° West 142 163 300 -660 Descending Los Angeles Center
05:29PM 32.7333 -117.1833 281° West  Level FlightAware Approximate
05:36PM 32.7336 -117.1897 281° West  Level Estimated